createdAt,value
2018-11-03T00:02:13.166Z,31.97
2018-11-03T00:04:45.186Z,35.07
2018-11-03T00:07:17.206Z,25.63
2018-11-03T00:09:49.190Z,25.87
2018-11-03T00:12:21.229Z,23.47
2018-11-03T00:14:53.328Z,27.53
2018-11-03T00:17:25.317Z,26.07
2018-11-03T00:19:57.370Z,26.53
2018-11-03T00:22:29.405Z,23.63
2018-11-03T00:25:01.417Z,25.83
2018-11-03T00:27:33.486Z,32.17
2018-11-03T00:30:07.438Z,27.37
2018-11-03T00:32:39.639Z,27.07
2018-11-03T00:35:11.974Z,25.77
2018-11-03T00:37:44.008Z,26.33
2018-11-03T00:40:16.035Z,23.60
2018-11-03T00:42:48.095Z,26.07
2018-11-03T00:45:20.099Z,29.90
2018-11-03T00:47:52.097Z,27.23
2018-11-03T00:50:24.108Z,26.73
2018-11-03T00:52:56.143Z,24.23
2018-11-03T00:55:28.192Z,22.17
2018-11-03T00:58:00.219Z,22.03
2018-11-03T01:00:32.307Z,23.40
2018-11-03T01:03:04.370Z,26.07
2018-11-03T01:05:36.418Z,22.73
2018-11-03T01:08:08.445Z,23.90
2018-11-03T01:10:40.491Z,26.43
2018-11-03T01:13:12.568Z,26.93
2018-11-03T01:15:44.613Z,25.23
2018-11-03T01:18:16.646Z,32.33
2018-11-03T01:20:48.657Z,33.17
2018-11-03T01:23:20.722Z,34.23
2018-11-03T01:25:52.721Z,36.00
2018-11-03T01:28:24.733Z,42.27
2018-11-03T01:30:56.749Z,36.07
2018-11-03T01:33:28.769Z,41.00
2018-11-03T01:36:00.783Z,37.73
2018-11-03T01:38:32.801Z,48.63
2018-11-03T01:41:04.810Z,41.20
2018-11-03T01:43:36.829Z,34.97
2018-11-03T01:46:08.849Z,35.03
2018-11-03T01:48:40.915Z,44.40
2018-11-03T01:51:12.950Z,41.93
2018-11-03T01:53:44.962Z,44.27
2018-11-03T01:56:17.018Z,38.50
2018-11-03T01:58:49.128Z,39.30
2018-11-03T02:01:21.127Z,53.70
2018-11-03T02:03:53.169Z,47.27
2018-11-03T02:06:25.171Z,43.43
2018-11-03T02:08:57.198Z,38.57
2018-11-03T02:11:29.242Z,38.60
2018-11-03T02:14:01.279Z,36.80
2018-11-03T02:16:33.342Z,26.87
2018-11-03T02:19:05.417Z,28.07
2018-11-03T02:21:37.513Z,41.47
2018-11-03T02:24:09.575Z,33.13
2018-11-03T02:26:41.670Z,31.03
2018-11-03T02:29:13.714Z,33.73
2018-11-03T02:31:45.722Z,30.93
2018-11-03T02:34:17.773Z,38.93
2018-11-03T02:36:49.772Z,40.50
2018-11-03T02:39:21.812Z,36.03
2018-11-03T02:41:53.808Z,40.13
2018-11-03T02:44:25.826Z,40.10
2018-11-03T02:46:57.873Z,48.77
2018-11-03T02:49:29.866Z,41.37
2018-11-03T02:52:01.893Z,51.83
2018-11-03T02:54:33.906Z,50.47
2018-11-03T02:57:05.934Z,55.80
2018-11-03T02:59:37.948Z,58.63
2018-11-03T03:02:09.979Z,48.17
2018-11-03T03:04:42.034Z,41.17
2018-11-03T03:07:14.063Z,44.27
2018-11-03T03:09:46.059Z,37.67
2018-11-03T03:12:18.075Z,38.90
2018-11-03T03:14:50.078Z,46.80
2018-11-03T03:17:22.147Z,38.80
2018-11-03T03:19:54.133Z,44.03
2018-11-03T03:22:26.158Z,44.63
2018-11-03T03:24:58.231Z,49.03
2018-11-03T03:27:30.262Z,49.73
2018-11-03T03:30:02.239Z,44.60
2018-11-03T03:32:34.299Z,44.30
2018-11-03T03:35:06.482Z,47.60
2018-11-03T03:37:38.509Z,60.67
2018-11-03T03:40:10.782Z,55.10
2018-11-03T03:42:42.794Z,57.70
2018-11-03T03:45:14.786Z,45.93
2018-11-03T03:47:46.818Z,38.43
2018-11-03T03:50:18.805Z,34.57
2018-11-03T03:52:50.810Z,48.67
2018-11-03T03:55:22.827Z,38.50
2018-11-03T03:57:54.812Z,42.63
2018-11-03T04:00:26.841Z,43.40
2018-11-03T04:02:59.017Z,38.90
2018-11-03T04:05:31.026Z,42.23
2018-11-03T04:08:03.027Z,41.77
2018-11-03T04:10:35.042Z,40.37
2018-11-03T04:13:07.034Z,47.87
2018-11-03T04:15:39.074Z,47.17
2018-11-03T04:18:11.090Z,49.43
2018-11-03T04:20:43.103Z,45.20
2018-11-03T04:23:15.144Z,45.40
2018-11-03T04:25:47.182Z,46.20
2018-11-03T04:28:19.208Z,47.10
2018-11-03T04:30:51.274Z,42.17
2018-11-03T04:33:23.297Z,46.20
2018-11-03T04:35:55.311Z,46.73
2018-11-03T04:38:27.326Z,48.90
2018-11-03T04:40:59.325Z,45.43
2018-11-03T04:43:31.334Z,43.60
2018-11-03T04:46:03.395Z,47.37
2018-11-03T04:48:35.518Z,41.73
2018-11-03T04:51:08.003Z,41.73
2018-11-03T04:53:40.046Z,47.13
2018-11-03T04:56:12.030Z,43.43
2018-11-03T04:58:44.033Z,48.03
2018-11-03T05:01:16.076Z,43.50
2018-11-03T05:03:48.095Z,56.40
2018-11-03T05:06:20.158Z,50.67
2018-11-03T05:08:52.162Z,50.33
2018-11-03T05:11:24.206Z,54.20
2018-11-03T05:13:56.200Z,44.97
2018-11-03T05:16:28.227Z,46.80
2018-11-03T05:19:00.247Z,48.40
2018-11-03T05:21:32.229Z,47.00
2018-11-03T05:24:04.337Z,59.73
2018-11-03T05:26:36.387Z,49.53
2018-11-03T05:29:08.561Z,62.17
2018-11-03T05:31:40.564Z,59.63
2018-11-03T05:34:12.611Z,54.93
2018-11-03T05:36:44.617Z,62.33
2018-11-03T05:39:16.662Z,66.97
2018-11-03T05:41:48.650Z,66.80
2018-11-03T05:44:20.690Z,64.27
2018-11-03T05:46:52.790Z,54.77
2018-11-03T05:49:24.831Z,58.10
2018-11-03T05:51:56.850Z,64.73
2018-11-03T05:54:28.905Z,57.77
2018-11-03T05:57:00.948Z,61.30
2018-11-03T05:59:33.106Z,62.50
2018-11-03T06:02:05.181Z,56.10
2018-11-03T06:04:37.242Z,56.97
2018-11-03T06:07:09.404Z,75.20
2018-11-03T06:09:41.416Z,58.80
2018-11-03T06:12:13.531Z,68.53
2018-11-03T06:14:45.571Z,60.90
2018-11-03T06:17:17.708Z,58.80
2018-11-03T06:19:49.726Z,65.40
2018-11-03T06:22:21.822Z,53.97
2018-11-03T06:24:53.810Z,54.03
2018-11-03T06:27:25.881Z,57.20
2018-11-03T06:30:04.717Z,54.13
2018-11-03T06:32:36.938Z,58.57
2018-11-03T06:35:10.030Z,51.50
2018-11-03T06:37:42.011Z,61.77
2018-11-03T06:40:14.214Z,52.67
2018-11-03T06:42:46.352Z,63.33
2018-11-03T06:45:18.350Z,51.70
2018-11-03T06:47:50.361Z,50.43
2018-11-03T06:50:22.368Z,51.70
2018-11-03T06:52:54.405Z,57.97
2018-11-03T06:55:26.426Z,56.37
2018-11-03T06:57:58.544Z,54.93
2018-11-03T07:00:30.579Z,48.77
2018-11-03T07:03:02.745Z,53.93
2018-11-03T07:05:34.762Z,59.93
2018-11-03T07:08:06.805Z,45.97
2018-11-03T07:10:38.842Z,50.53
2018-11-03T07:13:10.943Z,43.07
2018-11-03T07:15:42.902Z,40.20
2018-11-03T07:18:14.926Z,40.23
2018-11-03T07:20:46.994Z,45.40
2018-11-03T07:23:19.108Z,40.83
2018-11-03T07:25:51.199Z,43.20
2018-11-03T07:28:23.181Z,42.57
2018-11-03T07:30:55.206Z,37.70
2018-11-03T07:33:27.399Z,45.23
2018-11-03T07:35:59.419Z,41.57
2018-11-03T07:38:31.443Z,41.63
2018-11-03T07:41:03.647Z,37.40
2018-11-03T07:43:35.619Z,42.27
2018-11-03T07:46:07.609Z,37.73
2018-11-03T07:48:39.677Z,41.03
2018-11-03T07:51:11.658Z,31.73
2018-11-03T07:53:43.689Z,30.93
2018-11-03T07:56:15.694Z,30.30
2018-11-03T07:58:47.726Z,34.00
2018-11-03T08:01:19.742Z,33.53
2018-11-03T08:03:51.747Z,29.30
2018-11-03T08:06:23.761Z,32.47
2018-11-03T08:08:55.864Z,32.27
2018-11-03T08:11:27.825Z,33.20
2018-11-03T08:13:59.890Z,32.07
2018-11-03T08:16:31.989Z,34.43
2018-11-03T08:19:04.232Z,32.70
2018-11-03T08:21:36.231Z,36.13
2018-11-03T08:24:08.249Z,33.47
2018-11-03T08:26:40.264Z,31.60
2018-11-03T08:29:12.259Z,33.60
2018-11-03T08:31:44.379Z,33.17
2018-11-03T08:34:16.330Z,39.60
2018-11-03T08:36:48.363Z,34.70
2018-11-03T08:39:20.368Z,35.23
2018-11-03T08:41:52.394Z,36.67
2018-11-03T08:44:24.397Z,29.87
2018-11-03T08:46:56.519Z,36.17
2018-11-03T08:49:28.574Z,36.67
2018-11-03T08:52:01.210Z,34.37
2018-11-03T08:54:33.319Z,34.10
2018-11-03T08:57:05.454Z,36.43
2018-11-03T08:59:37.633Z,33.67
2018-11-03T09:02:09.581Z,36.77
2018-11-03T09:04:41.726Z,32.80
2018-11-03T09:07:13.912Z,32.00
2018-11-03T09:09:45.926Z,32.00
2018-11-03T09:12:18.005Z,30.30
2018-11-03T09:14:50.134Z,30.83
2018-11-03T09:17:22.142Z,36.00
2018-11-03T09:19:54.195Z,31.57
2018-11-03T09:22:26.295Z,38.07
2018-11-03T09:24:58.371Z,39.07
2018-11-03T09:27:30.537Z,37.03
2018-11-03T09:30:02.808Z,35.67
2018-11-03T09:32:34.895Z,45.70
2018-11-03T09:35:07.698Z,36.87
2018-11-03T09:37:39.749Z,31.63
2018-11-03T09:40:13.164Z,28.17
2018-11-03T09:42:45.963Z,32.03
2018-11-03T09:45:18.141Z,34.27
2018-11-03T09:47:50.174Z,34.17
2018-11-03T09:50:22.279Z,34.90
2018-11-03T09:52:54.354Z,31.97
2018-11-03T09:55:26.412Z,34.93
2018-11-03T09:57:58.560Z,31.60
2018-11-03T10:00:30.559Z,39.07
2018-11-03T10:03:02.724Z,27.63
2018-11-03T10:05:34.923Z,39.87
2018-11-03T10:08:06.995Z,26.63
2018-11-03T10:10:39.068Z,31.80
2018-11-03T10:13:11.180Z,31.53
2018-11-03T10:15:43.274Z,31.63
2018-11-03T10:18:15.422Z,27.13
2018-11-03T10:20:47.523Z,33.87
2018-11-03T10:23:19.599Z,28.80
2018-11-03T10:25:51.711Z,30.87
2018-11-03T10:28:23.774Z,27.80
2018-11-03T10:30:55.928Z,22.77
2018-11-03T10:33:28.027Z,25.63
2018-11-03T10:36:00.133Z,27.13
2018-11-03T10:38:32.190Z,29.70
2018-11-03T10:41:04.450Z,34.97
2018-11-03T10:43:36.503Z,35.23
2018-11-03T10:46:08.569Z,24.67
2018-11-03T10:48:40.588Z,33.17
2018-11-03T10:51:12.879Z,25.93
2018-11-03T10:53:44.992Z,33.30
2018-11-03T10:56:17.138Z,29.83
2018-11-03T10:58:49.349Z,31.40
2018-11-03T11:01:27.442Z,32.20
2018-11-03T11:04:05.387Z,31.23
2018-11-03T11:06:43.299Z,28.83
2018-11-03T11:11:26.889Z,30.33
2018-11-03T11:13:59.077Z,29.33
2018-11-03T11:16:31.260Z,29.10
2018-11-03T11:19:03.306Z,30.33
2018-11-03T11:21:36.369Z,29.03
2018-11-03T11:24:08.441Z,23.90
2018-11-03T11:26:40.477Z,34.27
2018-11-03T11:29:12.516Z,27.10
2018-11-03T11:31:44.584Z,29.23
2018-11-03T11:34:16.619Z,25.00
2018-11-03T11:36:48.644Z,30.93
2018-11-03T11:39:20.700Z,32.47
2018-11-03T11:41:52.730Z,30.83
2018-11-03T11:44:24.772Z,27.97
2018-11-03T11:46:56.774Z,30.80
2018-11-03T11:49:28.910Z,24.47
2018-11-03T11:52:01.091Z,34.23
2018-11-03T11:54:33.207Z,23.77
2018-11-03T11:57:05.356Z,22.50
2018-11-03T11:59:37.487Z,22.70
2018-11-03T12:02:09.692Z,30.43
2018-11-03T12:04:41.894Z,28.63
2018-11-03T12:07:13.928Z,22.13
2018-11-03T12:09:46.047Z,20.83
2018-11-03T12:12:18.187Z,23.70
2018-11-03T12:14:50.291Z,19.57
2018-11-03T12:17:22.359Z,26.07
2018-11-03T12:19:54.427Z,18.07
2018-11-03T12:22:26.518Z,22.67
2018-11-03T12:24:58.771Z,22.43
2018-11-03T12:27:30.860Z,24.77
2018-11-03T12:30:03.839Z,32.70
2018-11-03T12:32:35.995Z,23.13
2018-11-03T12:35:08.191Z,32.63
2018-11-03T12:37:40.312Z,27.20
2018-11-03T12:40:14.266Z,21.63
2018-11-03T12:42:46.439Z,22.47
2018-11-03T12:45:18.452Z,21.13
2018-11-03T12:47:50.531Z,25.27
2018-11-03T12:50:22.564Z,27.40
2018-11-03T12:52:54.651Z,23.93
2018-11-03T12:55:26.692Z,28.57
2018-11-03T12:57:58.736Z,28.97
2018-11-03T13:00:30.755Z,24.33
2018-11-03T13:03:02.838Z,26.50
2018-11-03T13:05:35.088Z,24.10
2018-11-03T13:08:07.242Z,26.10
2018-11-03T13:10:39.269Z,21.40
2018-11-03T13:13:11.333Z,31.70
2018-11-03T13:15:43.439Z,30.43
2018-11-03T13:18:15.497Z,26.13
2018-11-03T13:20:47.603Z,30.33
2018-11-03T13:23:19.695Z,24.43
2018-11-03T13:25:51.766Z,38.10
2018-11-03T13:28:23.793Z,34.97
2018-11-03T13:30:55.839Z,34.77
2018-11-03T13:33:27.883Z,28.03
2018-11-03T13:35:59.956Z,27.20
2018-11-03T13:38:32.007Z,30.23
2018-11-03T13:41:04.311Z,29.57
2018-11-03T13:43:36.363Z,25.87
2018-11-03T13:46:08.380Z,26.43
2018-11-03T13:48:40.454Z,26.20
2018-11-03T13:51:12.541Z,24.30
2018-11-03T13:53:44.597Z,28.00
2018-11-03T13:56:16.625Z,33.03
2018-11-03T13:58:48.781Z,30.40
2018-11-03T14:01:21.020Z,29.13
2018-11-03T14:03:53.082Z,28.70
2018-11-03T14:06:25.118Z,26.90
2018-11-03T14:08:57.127Z,22.83
2018-11-03T14:11:29.204Z,26.60
2018-11-03T14:14:01.226Z,25.77
2018-11-03T14:16:33.319Z,28.33
2018-11-03T14:19:05.343Z,24.50
2018-11-03T14:21:37.394Z,25.23
2018-11-03T14:24:09.453Z,22.20
2018-11-03T14:26:41.500Z,27.03
2018-11-03T14:29:13.646Z,27.67
2018-11-03T14:31:45.652Z,28.90
2018-11-03T14:34:17.742Z,28.87
2018-11-03T14:36:49.933Z,39.90
2018-11-03T14:39:22.075Z,41.37
2018-11-03T14:41:54.168Z,27.33
2018-11-03T14:44:26.307Z,37.83
2018-11-03T14:46:58.320Z,34.27
2018-11-03T14:49:30.392Z,32.63
2018-11-03T14:52:02.547Z,30.03
2018-11-03T14:54:34.597Z,38.50
2018-11-03T14:57:06.854Z,22.10
2018-11-03T14:59:38.978Z,19.97
2018-11-03T15:02:11.052Z,31.13
2018-11-03T15:04:43.186Z,31.50
2018-11-03T15:07:15.391Z,21.53
2018-11-03T15:09:47.400Z,20.43
2018-11-03T15:12:19.511Z,19.37
2018-11-03T15:14:51.589Z,26.03
2018-11-03T15:17:23.694Z,23.90
2018-11-03T15:19:55.821Z,18.57
2018-11-03T15:22:27.982Z,17.53
2018-11-03T15:25:00.063Z,26.80
2018-11-03T15:27:32.240Z,23.70
2018-11-03T15:30:05.997Z,21.67
2018-11-03T15:32:38.122Z,24.13
2018-11-03T15:35:10.963Z,31.20
2018-11-03T15:37:42.999Z,33.63
2018-11-03T15:40:15.444Z,27.77
2018-11-03T15:42:47.555Z,36.13
2018-11-03T15:45:19.620Z,24.07
2018-11-03T15:47:51.708Z,25.83
2018-11-03T15:50:23.706Z,17.27
2018-11-03T15:52:55.754Z,25.20
2018-11-03T15:55:27.784Z,36.80
2018-11-03T15:57:59.808Z,22.47
2018-11-03T16:00:31.872Z,25.30
2018-11-03T16:03:04.035Z,27.33
2018-11-03T16:05:36.055Z,21.50
2018-11-03T16:08:08.179Z,31.90
2018-11-03T16:10:40.178Z,31.53
2018-11-03T16:13:12.223Z,21.97
2018-11-03T16:15:44.254Z,17.17
2018-11-03T16:18:16.291Z,26.33
2018-11-03T16:20:48.318Z,24.77
2018-11-03T16:23:20.795Z,24.53
2018-11-03T16:25:52.887Z,28.53
2018-11-03T16:28:24.924Z,24.13
2018-11-03T16:30:56.925Z,23.03
2018-11-03T16:33:29.007Z,25.63
2018-11-03T16:36:01.011Z,25.40
2018-11-03T16:38:33.178Z,18.07
2018-11-03T16:41:05.154Z,24.67
2018-11-03T16:43:37.275Z,17.90
2018-11-03T16:46:09.290Z,22.80
2018-11-03T16:48:41.346Z,23.47
2018-11-03T16:51:13.350Z,24.50
2018-11-03T16:53:45.388Z,23.90
2018-11-03T16:56:17.422Z,27.93
2018-11-03T16:58:49.444Z,23.70
2018-11-03T17:01:21.617Z,28.87
2018-11-03T17:04:00.382Z,30.93
2018-11-03T17:06:32.444Z,30.87
2018-11-03T17:09:05.598Z,38.03
2018-11-03T17:11:37.637Z,37.23
2018-11-03T17:14:09.693Z,21.90
2018-11-03T17:16:41.786Z,29.83
2018-11-03T17:19:14.273Z,25.67
2018-11-03T17:21:46.344Z,29.10
2018-11-03T17:24:18.362Z,31.10
2018-11-03T17:26:50.405Z,37.67
2018-11-03T17:29:22.440Z,37.67
2018-11-03T17:31:54.502Z,45.77
2018-11-03T17:34:26.537Z,36.73
2018-11-03T17:36:58.570Z,48.17
2018-11-03T17:39:30.631Z,33.20
2018-11-03T17:42:02.646Z,24.83
2018-11-03T17:44:34.698Z,36.47
2018-11-03T17:47:07.150Z,40.70
2018-11-03T17:49:39.219Z,37.43
2018-11-03T17:52:11.252Z,40.40
2018-11-03T17:54:43.328Z,40.93
2018-11-03T17:57:15.354Z,33.10
2018-11-03T17:59:47.398Z,33.83
2018-11-03T18:02:19.443Z,52.70
2018-11-03T18:04:51.499Z,44.20
2018-11-03T18:07:23.530Z,40.00
2018-11-03T18:09:55.627Z,54.43
2018-11-03T18:12:27.631Z,47.77
2018-11-03T18:14:59.686Z,50.90
2018-11-03T18:17:31.698Z,58.97
2018-11-03T18:20:04.859Z,48.97
2018-11-03T18:22:37.098Z,51.40
2018-11-03T18:25:09.184Z,52.73
2018-11-03T18:27:41.213Z,54.90
2018-11-03T18:30:13.278Z,44.57
2018-11-03T18:32:45.288Z,58.03
2018-11-03T18:35:17.330Z,49.33
2018-11-03T18:37:49.435Z,68.77
2018-11-03T18:40:21.453Z,65.03
2018-11-03T18:42:53.471Z,64.67
2018-11-03T18:45:25.651Z,71.53
2018-11-03T18:47:57.677Z,55.27
2018-11-03T18:50:29.725Z,54.63
2018-11-03T18:53:01.788Z,52.27
2018-11-03T18:55:33.864Z,61.03
2018-11-03T18:58:05.885Z,62.20
2018-11-03T19:00:38.362Z,60.50
2018-11-03T19:03:10.500Z,63.50
2018-11-03T19:05:42.607Z,66.33
2018-11-03T19:08:14.722Z,62.43
2018-11-03T19:10:46.762Z,60.97
2018-11-03T19:13:18.992Z,85.83
2018-11-03T19:15:50.995Z,69.60
2018-11-03T19:18:23.152Z,71.40
2018-11-03T19:23:34.413Z,94.23
2018-11-03T19:26:06.507Z,84.37
2018-11-03T19:28:38.636Z,83.40
2018-11-03T19:31:10.713Z,68.57
2018-11-03T19:33:42.840Z,70.13
2018-11-03T19:36:14.990Z,90.87
2018-11-03T19:38:47.097Z,112.03
2018-11-03T19:41:19.190Z,96.63
2018-11-03T19:43:51.239Z,75.20
2018-11-03T19:46:23.238Z,71.30
2018-11-03T19:48:55.376Z,72.60
2018-11-03T19:51:27.448Z,83.17
2018-11-03T19:53:59.572Z,92.43
2018-11-03T19:56:31.587Z,80.50
2018-11-03T19:59:03.709Z,100.37
2018-11-03T20:01:35.759Z,85.03
2018-11-03T20:04:07.909Z,92.37
2018-11-03T20:06:39.929Z,113.60
2018-11-03T20:09:11.987Z,135.53
2018-11-03T20:11:44.066Z,142.00
2018-11-03T20:14:16.107Z,98.37
2018-11-03T20:16:48.189Z,109.20
2018-11-03T20:19:20.266Z,160.90
2018-11-03T20:21:52.301Z,215.17
2018-11-03T20:24:24.392Z,110.93
2018-11-03T20:26:56.479Z,104.33
2018-11-03T20:29:28.518Z,90.30
2018-11-03T20:32:00.658Z,94.40
2018-11-03T20:34:32.699Z,113.03
2018-11-03T20:37:04.869Z,135.27
2018-11-03T20:39:36.955Z,168.33
2018-11-03T20:42:09.056Z,106.60
2018-11-03T20:44:41.094Z,100.60
2018-11-03T20:47:13.135Z,108.07
2018-11-03T20:49:45.198Z,86.67
2018-11-03T20:52:17.255Z,79.03
2018-11-03T20:54:49.265Z,82.73
2018-11-03T20:57:21.319Z,71.50
2018-11-03T20:59:53.383Z,85.87
2018-11-03T21:02:25.396Z,92.50
2018-11-03T21:04:57.435Z,84.07
2018-11-03T21:07:29.482Z,88.07
2018-11-03T21:10:01.567Z,84.57
2018-11-03T21:12:33.597Z,88.27
2018-11-03T21:15:05.671Z,98.17
2018-11-03T21:17:37.775Z,103.13
2018-11-03T21:20:09.855Z,103.07
2018-11-03T21:22:41.896Z,100.33
2018-11-03T21:25:13.950Z,96.80
2018-11-03T21:27:46.002Z,98.27
2018-11-03T21:30:18.193Z,107.37
2018-11-03T21:32:50.247Z,111.53
2018-11-03T21:35:22.178Z,113.73
2018-11-03T21:37:54.221Z,110.30
2018-11-03T21:40:26.289Z,100.13
2018-11-03T21:42:58.374Z,105.23
2018-11-03T21:45:30.482Z,123.40
2018-11-03T21:48:02.526Z,112.70
2018-11-03T21:50:34.619Z,121.13
2018-11-03T21:53:06.648Z,104.83
2018-11-03T21:55:38.832Z,97.40
2018-11-03T21:58:10.887Z,93.40
2018-11-03T22:00:42.955Z,95.30
2018-11-03T22:03:14.983Z,105.20
2018-11-03T22:05:47.013Z,91.73
2018-11-03T22:08:19.046Z,72.43
2018-11-03T22:10:51.101Z,70.87
2018-11-03T22:13:23.167Z,88.40
2018-11-03T22:15:55.351Z,91.97
2018-11-03T22:18:27.302Z,93.53
2018-11-03T22:20:59.401Z,103.00
2018-11-03T22:23:31.462Z,113.80
2018-11-03T22:26:05.223Z,92.83
2018-11-03T22:28:37.269Z,80.27
2018-11-03T22:31:09.319Z,91.60
2018-11-03T22:33:41.419Z,101.37
2018-11-03T22:36:20.207Z,100.97
2018-11-03T22:38:52.257Z,95.37
2018-11-03T22:41:24.278Z,74.10
2018-11-03T22:43:56.413Z,79.13
2018-11-03T22:46:28.486Z,81.17
2018-11-03T22:49:00.563Z,72.67
2018-11-03T22:51:32.660Z,87.80
2018-11-03T22:54:04.720Z,73.40
2018-11-03T22:56:36.753Z,87.53
2018-11-03T22:59:08.857Z,87.53
2018-11-03T23:01:40.873Z,101.80
2018-11-03T23:04:12.904Z,94.63
2018-11-03T23:06:44.958Z,75.53
2018-11-03T23:09:16.979Z,88.80
2018-11-03T23:11:49.148Z,97.30
2018-11-03T23:14:21.207Z,107.80
2018-11-03T23:16:53.257Z,105.93
2018-11-03T23:19:25.326Z,111.27
2018-11-03T23:21:57.375Z,87.37
2018-11-03T23:24:29.430Z,100.27
2018-11-03T23:27:01.435Z,105.90
2018-11-03T23:29:33.528Z,88.57
2018-11-03T23:32:05.514Z,96.37
2018-11-03T23:34:37.579Z,112.63
2018-11-03T23:37:09.646Z,99.33
2018-11-03T23:39:41.744Z,102.13
2018-11-03T23:42:13.754Z,116.63
2018-11-03T23:44:45.831Z,96.30
2018-11-03T23:47:17.899Z,110.63
2018-11-03T23:49:49.933Z,96.63
2018-11-03T23:52:27.873Z,116.83
2018-11-03T23:55:00.290Z,110.43
2018-11-03T23:57:32.358Z,89.93
